Time;durP1;ratioP1;P1;durP2;ratioP2;P2;SDS_P1;SDS_P2;PMS_P1;PMS_P2;Temp;Humidity;BMP_temperature;BMP_pressure;BME280_temperature;BME280_humidity;BME280_pressure;Samples;Min_cycle;Max_cycle;Signal;HPM_P1;HPM_P2
2022/05/14 00:00:25;;;;;;;9.15;2.58;;;;;;;11.65;58.40;100608.31;5011453;28;20050;-46
2022/05/14 00:02:52;;;;;;;9.95;3.03;;;;;;;11.61;59.27;100603.13;5007242;28;20050;-47
2022/05/14 00:05:20;;;;;;;11.52;2.45;;;;;;;11.56;59.73;100603.13;5006930;28;20379;-49
2022/05/14 00:07:47;;;;;;;14.57;2.80;;;;;;;11.53;59.01;100597.94;5009583;28;20472;-45
2022/05/14 00:10:15;;;;;;;13.90;3.08;;;;;;;11.49;59.63;100606.56;4996461;28;20604;-47
2022/05/14 00:15:28;;;;;;;11.98;3.28;;;;;;;11.41;59.04;100614.31;5018481;28;20137;-49
2022/05/14 00:17:55;;;;;;;11.45;2.75;;;;;;;11.37;59.21;100615.16;5005071;28;20054;-46
2022/05/14 00:20:23;;;;;;;8.55;3.03;;;;;;;11.34;60.19;100602.22;5008070;28;20055;-54
2022/05/14 00:22:52;;;;;;;8.82;3.15;;;;;;;11.29;59.31;100607.38;5003571;28;20046;-50
2022/05/14 00:25:20;;;;;;;14.63;3.53;;;;;;;11.24;60.20;100609.94;5002671;28;20046;-55
2022/05/14 00:27:48;;;;;;;12.13;2.75;;;;;;;11.19;60.01;100616.84;5002158;28;20124;-48
2022/05/14 00:30:18;;;;;;;12.85;4.30;;;;;;;11.18;59.72;100612.53;5001294;28;20111;-47
2022/05/14 00:32:47;;;;;;;9.40;2.88;;;;;;;11.14;59.93;100613.34;5005702;28;20050;-52
2022/05/14 00:35:14;;;;;;;9.18;3.67;;;;;;;11.09;60.10;100610.75;5005100;28;20058;-50
2022/05/14 00:37:42;;;;;;;10.55;3.08;;;;;;;11.03;60.15;100601.22;5005650;28;20052;-49
2022/05/14 00:40:15;;;;;;;10.60;3.28;;;;;;;10.99;60.36;100602.09;4998945;28;20050;-52
2022/05/14 00:42:42;;;;;;;12.18;2.78;;;;;;;10.95;60.79;100600.34;5008201;28;20073;-48
2022/05/14 00:45:12;;;;;;;12.10;3.75;;;;;;;10.93;60.64;100613.28;5006336;28;20540;-49
2022/05/14 00:47:42;;;;;;;8.93;2.67;;;;;;;10.89;60.29;100610.66;5002176;28;20038;-47
2022/05/14 00:53:01;;;;;;;11.63;4.10;;;;;;;10.79;60.47;100600.25;5034331;27;20394;-55
2022/05/14 00:55:28;;;;;;;12.45;4.50;;;;;;;10.76;60.90;100600.25;5022746;28;20050;-48
2022/05/14 00:57:55;;;;;;;12.07;3.70;;;;;;;10.71;60.58;100595.88;5025112;28;20045;-46
2022/05/14 01:00:24;;;;;;;18.98;5.25;;;;;;;10.67;60.70;100605.34;5026651;28;20115;-50
2022/05/14 01:02:51;;;;;;;13.30;4.63;;;;;;;10.64;61.07;100605.34;5025816;28;20100;-44
2022/05/14 01:05:20;;;;;;;9.60;2.88;;;;;;;10.60;60.81;100604.47;5026088;28;20448;-45
2022/05/14 01:07:50;;;;;;;16.13;4.60;;;;;;;10.56;61.00;100605.28;5025304;28;20049;-45
2022/05/14 01:10:18;;;;;;;11.45;4.43;;;;;;;10.55;61.36;100603.56;5025977;28;20073;-46
2022/05/14 01:12:51;;;;;;;13.57;4.95;;;;;;;10.50;61.42;100595.75;5025778;28;20575;-52
2022/05/14 01:15:22;;;;;;;11.63;4.43;;;;;;;10.45;61.63;100594.88;5024605;28;20049;-53
2022/05/14 01:17:49;;;;;;;18.58;4.85;;;;;;;10.43;61.92;100591.38;5026875;28;20057;-49
2022/05/14 01:20:17;;;;;;;13.15;3.92;;;;;;;10.41;61.30;100598.28;5025936;28;20050;-50
2022/05/14 01:22:59;;;;;;;7.75;4.00;;;;;;;10.36;61.90;100599.94;5022064;28;20049;-51
2022/05/14 01:28:27;;;;;;;7.95;3.85;;;;;;;10.32;61.88;100590.41;5004854;28;20096;-45
2022/05/14 01:30:59;;;;;;;11.43;4.00;;;;;;;10.29;62.10;100593.88;5003607;28;20061;-47
2022/05/14 01:33:26;;;;;;;9.02;3.90;;;;;;;10.26;61.81;100589.53;5038311;28;20050;-51
2022/05/14 01:35:54;;;;;;;9.80;4.30;;;;;;;10.26;62.08;100591.25;5006762;28;20046;-48
2022/05/14 01:38:23;;;;;;;11.73;4.40;;;;;;;10.23;61.89;100586.91;5007819;28;20101;-48
2022/05/14 01:40:49;;;;;;;12.68;4.00;;;;;;;10.21;62.01;100591.22;5021713;28;20054;-52
2022/05/14 01:43:16;;;;;;;14.50;4.70;;;;;;;10.18;62.29;100596.38;5003063;28;20104;-48
2022/05/14 01:45:43;;;;;;;6.53;4.47;;;;;;;10.16;62.30;100595.50;5005700;28;20062;-47
2022/05/14 01:48:10;;;;;;;11.77;2.70;;;;;;;10.15;62.33;100586.00;5003400;28;20501;-44
2022/05/14 01:50:38;;;;;;;12.82;4.45;;;;;;;10.12;62.17;100585.97;5002589;28;20050;-52
2022/05/14 01:53:05;;;;;;;12.00;4.28;;;;;;;10.10;61.69;100585.09;5032609;28;20042;-55
2022/05/14 01:55:31;;;;;;;10.88;5.35;;;;;;;10.06;62.29;100581.59;5004049;28;20136;-45
2022/05/14 01:57:58;;;;;;;12.88;4.40;;;;;;;10.02;62.17;100583.31;5003541;28;20050;-44
2022/05/14 02:00:25;;;;;;;11.77;4.40;;;;;;;9.97;62.54;100582.38;5003198;28;20100;-46
2022/05/14 02:02:53;;;;;;;10.65;4.28;;;;;;;9.96;62.64;100585.84;4998849;28;20042;-51
2022/05/14 02:05:20;;;;;;;14.48;4.82;;;;;;;9.92;62.55;100580.66;5002250;28;20112;-48
2022/05/14 02:07:46;;;;;;;14.13;4.47;;;;;;;9.89;62.66;100584.06;4984089;28;20050;-45
2022/05/14 02:10:13;;;;;;;10.93;4.43;;;;;;;9.85;63.05;100579.69;4992255;28;20046;-45
2022/05/14 02:12:40;;;;;;;10.88;3.90;;;;;;;9.82;62.77;100582.25;4992178;28;20112;-50
2022/05/14 02:15:07;;;;;;;11.82;4.00;;;;;;;9.80;63.09;100583.97;4992087;28;20466;-49
2022/05/14 02:17:34;;;;;;;10.85;4.43;;;;;;;9.75;63.17;100582.22;4993198;28;20100;-50
2022/05/14 02:20:03;;;;;;;12.23;4.15;;;;;;;9.75;63.08;100577.03;4991968;28;20050;-46
2022/05/14 02:22:29;;;;;;;12.35;3.97;;;;;;;9.72;63.14;100582.19;4989502;28;20058;-45
2022/05/14 02:24:56;;;;;;;9.45;4.68;;;;;;;9.71;63.17;100580.47;4991868;28;20073;-51
2022/05/14 02:27:22;;;;;;;8.52;4.22;;;;;;;9.71;62.86;100580.47;4991674;28;20105;-48
2022/05/14 02:29:50;;;;;;;12.10;4.40;;;;;;;9.71;62.99;100585.63;4990190;28;20470;-48
2022/05/14 02:32:18;;;;;;;9.18;4.03;;;;;;;9.67;63.52;100583.88;4991249;28;20074;-47
2022/05/14 02:34:46;;;;;;;11.00;3.90;;;;;;;9.65;63.34;100588.16;4990085;28;20057;-45
2022/05/14 02:37:14;;;;;;;10.20;4.07;;;;;;;9.62;62.97;100590.69;4989891;28;20046;-47
2022/05/14 02:39:41;;;;;;;11.68;4.40;;;;;;;9.58;63.43;100594.09;4989871;28;20089;-53
2022/05/14 02:42:07;;;;;;;15.48;4.80;;;;;;;9.55;63.33;100599.28;4992017;28;20119;-48
2022/05/14 02:44:35;;;;;;;14.00;4.80;;;;;;;9.54;63.43;100600.97;4991727;28;20502;-49
2022/05/14 02:47:02;;;;;;;11.02;4.05;;;;;;;9.49;63.49;100598.34;4991804;28;20081;-53
2022/05/14 02:49:29;;;;;;;10.20;4.57;;;;;;;9.46;63.77;100594.88;4989575;28;20050;-46
2022/05/14 02:51:55;;;;;;;12.52;4.93;;;;;;;9.43;63.92;100600.00;4991438;28;20104;-50
2022/05/14 02:54:22;;;;;;;18.23;5.05;;;;;;;9.39;63.45;100604.25;4991808;28;20050;-51
2022/05/14 02:56:49;;;;;;;13.10;5.05;;;;;;;9.37;63.91;100605.97;4991962;28;20457;-44
2022/05/14 02:59:15;;;;;;;12.65;3.30;;;;;;;9.34;64.30;100605.94;4988924;28;20459;-47
2022/05/14 03:01:50;;;;;;;13.90;5.47;;;;;;;9.31;63.99;100599.00;4990080;28;20116;-46
2022/05/14 03:04:22;;;;;;;18.10;5.05;;;;;;;9.30;64.39;100591.22;4992622;28;20042;-46
2022/05/14 03:06:50;;;;;;;14.35;5.13;;;;;;;9.28;64.17;100590.38;4990551;28;20054;-53
2022/05/14 03:09:17;;;;;;;14.95;5.47;;;;;;;9.26;64.22;100598.94;4988494;28;20101;-46
2022/05/14 03:11:44;;;;;;;12.98;4.82;;;;;;;9.25;64.22;100602.38;4990466;28;20046;-49
2022/05/14 03:14:12;;;;;;;15.02;4.68;;;;;;;9.24;64.47;100605.84;4989932;28;20514;-46
2022/05/14 03:16:40;;;;;;;12.75;4.88;;;;;;;9.22;64.39;100602.34;4990669;28;20050;-52
2022/05/14 03:19:07;;;;;;;15.32;5.13;;;;;;;9.21;64.15;100600.63;4993165;28;20119;-46
2022/05/14 03:21:35;;;;;;;12.43;4.88;;;;;;;9.18;64.44;100598.00;4986128;28;20100;-52
2022/05/14 03:24:02;;;;;;;13.30;3.05;;;;;;;9.15;64.43;100604.84;4990774;28;20419;-45
2022/05/14 03:26:28;;;;;;;14.25;6.20;;;;;;;9.10;64.46;100602.22;4990178;28;20112;-46
2022/05/14 03:28:55;;;;;;;13.52;5.40;;;;;;;9.08;64.03;100603.88;4990442;28;20046;-50
2022/05/14 03:31:23;;;;;;;14.55;5.45;;;;;;;9.05;64.67;100599.56;4990695;28;20101;-47
2022/05/14 03:33:49;;;;;;;21.30;5.50;;;;;;;9.03;64.12;100605.56;4988833;28;20046;-48
2022/05/14 03:36:16;;;;;;;13.73;6.07;;;;;;;9.00;64.11;100609.84;4991073;28;20077;-48
2022/05/14 03:38:43;;;;;;;17.38;5.28;;;;;;;8.97;64.83;100602.06;4990858;28;20116;-50
2022/05/14 03:41:10;;;;;;;13.82;5.90;;;;;;;8.97;63.91;100607.22;4987855;28;20058;-46
2022/05/14 03:43:37;;;;;;;20.17;5.68;;;;;;;8.93;64.64;100602.88;4990511;28;20581;-49
2022/05/14 03:46:03;;;;;;;10.75;5.30;;;;;;;8.90;65.11;100599.34;4990271;28;20047;-46
2022/05/14 03:48:30;;;;;;;14.50;6.47;;;;;;;8.85;64.80;100596.75;4989650;28;20062;-52
2022/05/14 03:50:57;;;;;;;13.90;5.65;;;;;;;8.83;64.59;100604.47;4986257;28;20765;-52
2022/05/14 03:53:23;;;;;;;16.13;4.97;;;;;;;8.82;65.31;100610.47;4990597;28;21646;-47
2022/05/14 03:55:50;;;;;;;15.07;6.10;;;;;;;8.80;65.76;100613.88;4987728;28;20109;-51
2022/05/14 03:58:17;;;;;;;15.30;6.55;;;;;;;8.77;65.68;100611.25;4988522;28;20047;-49
2022/05/14 04:00:44;;;;;;;19.10;6.85;;;;;;;8.74;65.57;100609.50;4986990;28;20050;-52
2022/05/14 04:03:11;;;;;;;14.00;5.70;;;;;;;8.72;64.99;100606.88;4989399;28;20078;-54
2022/05/14 04:05:37;;;;;;;12.43;5.18;;;;;;;8.72;65.04;100609.47;4989918;28;20104;-48
2022/05/14 04:08:05;;;;;;;13.98;5.72;;;;;;;8.72;65.49;100619.78;4987515;28;20043;-52
2022/05/14 04:10:32;;;;;;;9.70;3.65;;;;;;;8.70;66.01;100624.09;4988894;28;20434;-48
2022/05/14 04:12:59;;;;;;;13.15;5.47;;;;;;;8.65;65.63;100625.72;4989331;28;20050;-55
2022/05/14 04:15:27;;;;;;;12.10;5.85;;;;;;;8.63;65.15;100617.09;4990309;28;20053;-52
2022/05/14 04:17:54;;;;;;;16.52;6.15;;;;;;;8.61;64.77;100621.34;4984999;28;20490;-52
2022/05/14 04:20:22;;;;;;;14.25;6.28;;;;;;;8.59;64.72;100615.31;4988155;28;20058;-50
2022/05/14 04:22:50;;;;;;;14.57;6.43;;;;;;;8.56;65.01;100610.97;4987718;28;20046;-48
2022/05/14 04:25:18;;;;;;;14.60;5.72;;;;;;;8.56;64.63;100621.31;4988318;28;20046;-49
2022/05/14 04:27:45;;;;;;;15.45;5.57;;;;;;;8.57;65.74;100619.56;4988517;28;20046;-49
2022/05/14 04:30:14;;;;;;;17.33;6.30;;;;;;;8.58;64.89;100618.75;4988175;28;20087;-48
2022/05/14 04:32:40;;;;;;;11.45;3.95;;;;;;;8.57;65.47;100611.81;4989266;28;20450;-48
2022/05/14 04:35:08;;;;;;;12.88;6.07;;;;;;;8.58;65.68;100617.03;4989456;28;20113;-52
2022/05/14 04:37:36;;;;;;;17.10;5.88;;;;;;;8.59;64.92;100615.31;4990253;28;20046;-52
2022/05/14 04:40:04;;;;;;;16.45;6.30;;;;;;;8.60;65.42;100604.13;4989236;28;20046;-52
2022/05/14 04:42:31;;;;;;;16.48;5.65;;;;;;;8.62;65.34;100615.38;4988333;28;20051;-49
2022/05/14 04:44:58;;;;;;;12.07;5.57;;;;;;;8.59;65.27;100623.94;4988105;28;20056;-47
2022/05/14 04:47:24;;;;;;;14.75;5.78;;;;;;;8.55;64.80;100631.59;4990213;28;20042;-53
2022/05/14 04:49:51;;;;;;;15.05;5.82;;;;;;;8.52;65.92;100626.34;4986832;28;20047;-53
2022/05/14 04:52:18;;;;;;;13.88;5.68;;;;;;;8.51;65.95;100622.06;4989366;28;20047;-53
2022/05/14 04:54:44;;;;;;;15.45;6.28;;;;;;;8.53;64.89;100622.94;4989635;28;20054;-49
2022/05/14 04:57:11;;;;;;;16.55;6.32;;;;;;;8.56;64.67;100634.22;4988151;28;20113;-51
2022/05/14 04:59:37;;;;;;;13.77;6.30;;;;;;;8.57;65.15;100638.53;4990797;28;20054;-55
2022/05/14 05:04:51;;;;;;;12.75;5.60;;;;;;;8.66;64.69;100635.22;4988224;28;20081;-49
2022/05/14 05:07:18;;;;;;;14.13;5.45;;;;;;;8.71;65.97;100635.25;4989500;28;20050;-48
2022/05/14 05:09:45;;;;;;;15.43;6.05;;;;;;;8.82;65.74;100638.03;4989313;28;20043;-51
2022/05/14 05:12:13;;;;;;;14.18;6.43;;;;;;;8.94;65.93;100639.88;4989114;28;20467;-51
2022/05/14 05:14:41;;;;;;;13.20;6.25;;;;;;;9.06;65.78;100647.81;4991473;28;20113;-50
2022/05/14 05:17:07;;;;;;;13.82;5.88;;;;;;;9.20;66.22;100655.75;4987051;28;20457;-51
2022/05/14 05:19:34;;;;;;;17.95;6.18;;;;;;;9.36;66.51;100645.59;4989241;28;20050;-57
2022/05/14 05:22:01;;;;;;;12.45;5.85;;;;;;;9.53;66.15;100658.72;4988623;28;20042;-48
2022/05/14 05:24:27;;;;;;;12.85;6.55;;;;;;;9.71;66.08;100665.81;4988322;28;20058;-45
2022/05/14 05:26:54;;;;;;;18.65;6.13;;;;;;;9.88;66.77;100670.28;4991147;28;20046;-56
2022/05/14 05:29:20;;;;;;;13.13;5.47;;;;;;;10.03;66.53;100675.63;4989030;28;20050;-53
2022/05/14 05:31:47;;;;;;;16.17;5.82;;;;;;;10.20;66.56;100680.09;4988960;28;20046;-52
2022/05/14 05:34:14;;;;;;;12.88;5.40;;;;;;;10.37;66.55;100674.19;4989426;28;20051;-50
2022/05/14 05:36:41;;;;;;;9.95;4.97;;;;;;;10.54;66.19;100674.38;4988560;28;20117;-52
2022/05/14 05:39:07;;;;;;;15.15;5.05;;;;;;;10.65;65.78;100674.44;4992052;28;20125;-50
2022/05/14 05:41:34;;;;;;;9.68;5.45;;;;;;;10.73;65.58;100672.75;4995293;28;20518;-50
2022/05/14 05:44:00;;;;;;;14.20;4.97;;;;;;;10.88;65.47;100678.91;4990528;28;20124;-50
2022/05/14 05:46:27;;;;;;;17.48;6.18;;;;;;;11.05;66.43;100674.66;4992584;28;20054;-53
2022/05/14 05:48:53;;;;;;;10.88;5.57;;;;;;;11.26;65.76;100678.25;4993072;28;20058;-52
2022/05/14 05:51:20;;;;;;;13.02;5.22;;;;;;;11.47;65.74;100676.59;4989726;28;20046;-50
2022/05/14 05:56:56;;;;;;;13.68;4.95;;;;;;;11.94;65.64;100682.78;4989784;28;20054;-53
2022/05/14 05:59:20;;;;;;;11.43;5.25;;;;;;;12.18;64.46;100685.44;4977855;28;20054;-48
2022/05/14 06:01:47;;;;;;;11.45;4.85;;;;;;;12.38;65.26;100672.47;4988479;28;20061;-50
2022/05/14 06:04:14;;;;;;;13.55;4.95;;;;;;;12.59;64.01;100684.56;4990674;28;20074;-55
2022/05/14 06:06:42;;;;;;;12.70;5.30;;;;;;;12.79;64.62;100688.00;4992487;28;20046;-51
2022/05/14 06:09:13;;;;;;;14.50;5.53;;;;;;;13.03;63.33;100686.25;4989546;28;20047;-49
2022/05/14 06:11:42;;;;;;;12.30;5.47;;;;;;;13.21;63.77;100691.34;4993732;28;20101;-51
2022/05/14 06:14:09;;;;;;;21.90;5.85;;;;;;;13.27;63.10;100690.47;5023005;28;20054;-54
2022/05/14 06:16:36;;;;;;;12.57;5.15;;;;;;;13.26;62.17;100688.75;4992095;28;20105;-54
2022/05/14 06:19:04;;;;;;;15.15;4.85;;;;;;;13.24;61.72;100674.88;4992344;28;20050;-51
2022/05/14 06:21:31;;;;;;;10.18;4.82;;;;;;;13.25;62.83;100681.81;4990887;28;20506;-57
2022/05/14 06:23:57;;;;;;;13.30;4.95;;;;;;;13.32;61.80;100683.53;4991366;28;20050;-48
2022/05/14 06:26:24;;;;;;;16.70;5.45;;;;;;;13.42;61.99;100683.50;4994346;28;20050;-52
2022/05/14 06:28:51;;;;;;;15.52;5.15;;;;;;;13.51;62.31;100693.03;4991744;28;20057;-50
2022/05/14 06:31:17;;;;;;;16.65;6.18;;;;;;;13.62;61.59;100684.28;4989905;28;20046;-51
2022/05/14 06:33:45;;;;;;;10.95;5.45;;;;;;;13.86;62.69;100692.84;4991245;28;20051;-53
2022/05/14 06:36:12;;;;;;;14.50;5.78;;;;;;;14.02;61.75;100695.34;4990924;28;20046;-50
2022/05/14 06:38:39;;;;;;;14.27;5.20;;;;;;;14.11;61.76;100690.06;4991103;28;20054;-59
2022/05/14 06:41:07;;;;;;;17.08;4.82;;;;;;;14.21;61.38;100692.59;4990422;28;20564;-53
2022/05/14 06:43:34;;;;;;;13.55;4.82;;;;;;;14.27;61.21;100684.75;4992011;28;20038;-54
2022/05/14 06:46:01;;;;;;;10.63;4.40;;;;;;;14.38;60.58;100688.13;4991345;28;20548;-54
2022/05/14 06:48:28;;;;;;;12.35;5.07;;;;;;;14.47;60.82;100689.81;4992108;28;20058;-47
2022/05/14 06:50:58;;;;;;;12.27;4.88;;;;;;;14.63;60.62;100689.66;4991553;28;20112;-55
2022/05/14 06:53:25;;;;;;;13.05;4.72;;;;;;;14.74;60.19;100685.22;4989550;28;20050;-54
2022/05/14 06:55:55;;;;;;;11.27;6.03;;;;;;;14.77;59.52;100689.56;4991163;28;20105;-55
2022/05/14 06:58:28;;;;;;;12.23;5.03;;;;;;;14.84;59.80;100685.13;4990454;28;20501;-53
2022/05/14 07:00:54;;;;;;;12.35;5.13;;;;;;;14.94;58.93;100691.13;4974967;28;20073;-55
2022/05/14 07:08:55;;;;;;;16.63;4.95;;;;;;;16.05;59.66;100696.69;4990580;28;20054;-50
2022/05/14 07:11:22;;;;;;;9.25;4.88;;;;;;;16.38;58.34;100696.19;4991332;28;20046;-54
2022/05/14 07:13:51;;;;;;;12.93;5.00;;;;;;;16.81;58.09;100698.94;4990470;28;20100;-50
2022/05/14 07:16:17;;;;;;;12.65;3.75;;;;;;;17.26;57.82;100694.66;4990927;28;20412;-50
2022/05/14 07:18:44;;;;;;;11.90;4.55;;;;;;;17.63;56.97;100696.47;4989920;28;20070;-59
2022/05/14 07:21:11;;;;;;;13.10;4.93;;;;;;;17.83;56.08;100689.91;4990159;28;20058;-52
2022/05/14 07:23:38;;;;;;;13.07;5.38;;;;;;;17.83;55.13;100689.91;4988319;28;20047;-51
2022/05/14 07:26:06;;;;;;;12.65;3.92;;;;;;;17.75;54.79;100689.22;4989798;28;20649;-53
2022/05/14 07:28:34;;;;;;;15.00;4.68;;;;;;;17.60;55.53;100688.69;4991025;28;20764;-50
2022/05/14 07:31:01;;;;;;;10.70;3.90;;;;;;;17.47;54.94;100688.94;4989350;28;20046;-49
2022/05/14 07:33:29;;;;;;;8.13;4.10;;;;;;;17.44;54.47;100698.63;4989457;28;20046;-50
2022/05/14 07:36:01;;;;;;;12.27;3.95;;;;;;;17.39;54.87;100698.72;4991314;28;20058;-51
2022/05/14 07:38:30;;;;;;;16.27;3.72;;;;;;;17.42;55.18;100688.19;4991255;28;20046;-52
2022/05/14 07:40:57;;;;;;;19.42;3.45;;;;;;;17.53;54.56;100695.81;4991207;28;20482;-53
2022/05/14 07:43:30;;;;;;;10.43;3.72;;;;;;;17.91;54.32;100695.88;4990338;28;20104;-56
2022/05/14 07:46:20;;;;;;;11.50;4.05;;;;;;;18.36;52.96;100686.09;4988601;28;20069;-50
2022/05/14 07:48:47;;;;;;;9.50;4.18;;;;;;;18.67;53.17;100698.41;4989402;28;20085;-53
2022/05/14 07:51:14;;;;;;;12.35;3.85;;;;;;;18.81;52.15;100694.59;4989541;28;20093;-55
2022/05/14 07:53:41;;;;;;;12.52;4.45;;;;;;;18.86;52.11;100703.19;4989474;28;20084;-51
2022/05/14 07:56:09;;;;;;;11.73;3.28;;;;;;;18.84;51.13;100710.22;4990488;28;20058;-51
2022/05/14 07:58:38;;;;;;;12.32;4.03;;;;;;;18.93;52.13;100707.38;4990193;28;20061;-54
2022/05/14 08:01:05;;;;;;;15.77;4.25;;;;;;;18.99;51.99;100709.81;4988198;28;20368;-59
2022/05/14 08:03:32;;;;;;;11.27;3.75;;;;;;;18.90;50.96;100699.56;4990607;28;20100;-49
2022/05/14 08:05:59;;;;;;;14.77;4.22;;;;;;;18.86;51.42;100714.56;4990471;28;20053;-45
2022/05/14 08:08:27;;;;;;;14.52;3.78;;;;;;;18.82;51.69;100712.03;4991062;28;20047;-52
2022/05/14 08:10:55;;;;;;;10.35;3.30;;;;;;;18.94;51.37;100719.59;4990213;28;20105;-53
2022/05/14 08:13:24;;;;;;;11.38;3.58;;;;;;;19.27;52.20;100727.47;4988871;28;20450;-54
2022/05/14 08:15:52;;;;;;;13.43;4.13;;;;;;;19.72;51.20;100725.28;4989721;28;20100;-56
2022/05/14 08:18:19;;;;;;;10.27;2.58;;;;;;;19.98;50.60;100721.00;4973142;28;20465;-51
2022/05/14 08:20:50;;;;;;;11.65;3.95;;;;;;;20.22;49.96;100728.19;4991916;28;20054;-58
2022/05/14 08:26:05;;;;;;;14.10;3.80;;;;;;;20.91;48.35;100717.13;4988446;28;20050;-52
2022/05/14 08:28:32;;;;;;;7.65;4.18;;;;;;;21.22;48.01;100723.06;4990099;28;20050;-47
2022/05/14 08:31:00;;;;;;;9.95;3.33;;;;;;;21.61;47.64;100721.59;4987149;28;20092;-54
2022/05/14 08:33:27;;;;;;;13.98;4.63;;;;;;;22.05;46.96;100725.22;4988585;28;20048;-54
2022/05/14 08:35:54;;;;;;;12.23;4.13;;;;;;;22.43;46.41;100724.59;4990397;28;20074;-53
2022/05/14 08:38:23;;;;;;;11.60;3.67;;;;;;;22.72;45.88;100715.47;4989970;28;20042;-57
2022/05/14 08:40:55;;;;;;;13.45;4.35;;;;;;;23.01;44.54;100717.75;4989787;28;20065;-56
2022/05/14 08:43:27;;;;;;;10.77;3.88;;;;;;;23.18;43.72;100710.84;4987683;28;20486;-55
2022/05/14 08:45:55;;;;;;;7.13;3.58;;;;;;;23.28;43.81;100706.88;4989643;28;20058;-55
2022/05/14 08:48:34;;;;;;;12.43;2.50;;;;;;;23.34;43.90;100719.78;4989498;28;20481;-57
2022/05/14 08:51:06;;;;;;;12.50;4.32;;;;;;;23.69;43.17;100712.94;4987193;28;20387;-51
2022/05/14 08:53:37;;;;;;;10.35;3.03;;;;;;;23.98;43.60;100716.00;4988925;28;20065;-57
2022/05/14 09:01:26;;;;;;;8.88;2.25;;;;;;;24.50;41.04;100719.66;5142223;27;20385;-56
2022/05/14 09:03:53;;;;;;;9.43;2.25;;;;;;;24.26;41.64;100719.94;5122103;27;20047;-55
2022/05/14 09:06:20;;;;;;;9.75;2.45;;;;;;;24.13;42.08;100725.84;5126617;27;20043;-54
2022/05/14 09:08:48;;;;;;;7.90;3.05;;;;;;;24.03;41.53;100723.69;5126282;28;20051;-52
2022/05/14 09:11:36;;;;;;;11.40;2.55;;;;;;;24.15;43.24;100714.34;5124151;27;20035;-52
2022/05/14 09:14:17;;;;;;;10.57;2.38;;;;;;;24.49;42.22;100718.78;5121551;27;20085;-53
2022/05/14 09:16:51;;;;;;;13.20;3.25;;;;;;;24.67;41.81;100715.25;5096800;28;20052;-51
2022/05/14 09:19:20;;;;;;;9.60;2.55;;;;;;;24.72;41.25;100708.78;5080191;28;20044;-53
2022/05/14 09:21:50;;;;;;;;;;;;;;;24.70;41.54;100713.34;5099986;28;20123;-50
2022/05/14 09:24:25;;;;;;;11.68;2.47;;;;;;;24.77;41.82;100713.84;5097421;28;19920;-58
2022/05/14 09:26:55;;;;;;;10.50;2.80;;;;;;;24.90;41.58;100709.66;5095390;28;20079;-52
2022/05/14 09:29:32;;;;;;;;;;;;;;;25.08;41.97;100706.97;5098034;28;20102;-54
2022/05/14 09:32:04;;;;;;;8.80;2.75;;;;;;;25.35;41.78;100702.91;5119208;27;19924;-55
2022/05/14 09:34:34;;;;;;;11.75;3.45;;;;;;;25.39;40.48;100715.03;5120225;28;20070;-54
2022/05/14 09:40:07;;;;;;;9.90;2.92;;;;;;;25.21;39.59;100714.25;5032712;28;20392;-47
2022/05/14 09:42:54;;;;;;;12.20;3.75;;;;;;;25.11;39.29;100706.81;5004624;28;20517;-56
2022/05/14 09:45:31;;;;;;;11.82;3.08;;;;;;;25.05;39.61;100711.59;5001664;28;20050;-55
2022/05/14 09:48:15;;;;;;;10.98;3.30;;;;;;;24.89;40.08;100717.72;5004305;28;20077;-48
2022/05/14 09:50:44;;;;;;;11.10;3.20;;;;;;;24.84;40.32;100715.25;5006536;28;20479;-53
2022/05/14 09:53:10;;;;;;;9.85;2.70;;;;;;;24.98;40.76;100716.34;5005114;28;20042;-54
2022/05/14 09:58:26;;;;;;;11.82;2.97;;;;;;;25.53;38.46;100711.66;5044680;27;20806;-57
2022/05/14 10:14:51;;;;;;;12.02;2.42;;;;;;;27.08;37.80;100712.47;5023367;27;20418;-57
2022/05/14 10:17:58;;;;;;;9.38;2.83;;;;;;;27.14;36.60;100721.88;5017731;28;20096;-54
2022/05/14 10:28:32;;;;;;;8.63;2.60;;;;;;;26.97;35.99;100703.44;5042180;27;20394;-53
2022/05/14 10:33:36;;;;;;;10.85;3.13;;;;;;;26.75;36.81;100700.28;5054910;27;20428;-53
2022/05/14 10:36:33;;;;;;;9.45;2.55;;;;;;;26.53;36.65;100700.72;5026552;28;20466;-53
2022/05/14 10:39:07;;;;;;;8.13;2.42;;;;;;;26.26;37.49;100704.03;5025587;28;20049;-52
2022/05/14 10:41:56;;;;;;;11.88;3.30;;;;;;;26.42;37.36;100698.72;5025540;28;20038;-50
2022/05/14 10:44:38;;;;;;;8.35;2.25;;;;;;;26.72;38.04;100695.16;5023609;28;20112;-49
2022/05/14 10:47:09;;;;;;;10.32;3.10;;;;;;;26.94;37.69;100708.00;5025758;28;20497;-49
2022/05/14 10:49:44;;;;;;;12.65;2.97;;;;;;;27.08;36.60;100700.97;5025216;28;20042;-52
2022/05/14 10:52:15;;;;;;;11.45;2.65;;;;;;;27.11;37.03;100700.78;5024584;28;20501;-57
2022/05/14 10:54:43;;;;;;;8.52;2.40;;;;;;;26.90;36.18;100695.84;5025854;28;20042;-53
2022/05/14 10:59:55;;;;;;;12.68;4.00;;;;;;;26.74;36.44;100693.25;5066605;28;20847;-53
2022/05/14 11:02:31;;;;;;;10.05;3.35;;;;;;;26.88;36.18;100694.22;5046603;28;20053;-51
2022/05/14 11:04:58;;;;;;;14.05;4.32;;;;;;;27.02;37.26;100696.06;5042240;28;20555;-47
2022/05/14 11:10:32;;;;;;;12.10;2.65;;;;;;;27.41;35.48;100685.66;5048032;27;20386;-53
2022/05/14 11:13:24;;;;;;;9.82;2.00;;;;;;;27.56;35.85;100694.47;5024544;28;20046;-47
2022/05/14 11:21:36;;;;;;;12.82;4.32;;;;;;;27.57;36.26;100686.38;5054534;28;20398;-54
2022/05/14 11:24:03;;;;;;;12.13;3.95;;;;;;;27.64;35.77;100692.19;5033638;28;20540;-51
2022/05/14 11:26:30;;;;;;;8.02;2.45;;;;;;;27.69;35.02;100690.06;5005799;28;20437;-54
2022/05/14 11:29:00;;;;;;;8.65;1.70;;;;;;;27.78;35.03;100693.09;5003575;28;20759;-56
2022/05/14 11:31:32;;;;;;;7.70;3.35;;;;;;;27.86;34.33;100690.75;5037282;28;20068;-55
2022/05/14 11:34:13;;;;;;;7.78;3.47;;;;;;;27.89;33.49;100685.25;5032748;28;20065;-51
2022/05/14 11:36:44;;;;;;;;;;;;;;;27.36;33.74;100682.44;5005267;28;20069;-52
2022/05/14 11:44:55;;;;;;;10.57;2.50;;;;;;;27.62;33.15;100678.09;5065227;28;20383;-59
2022/05/14 11:50:23;;;;;;;10.48;2.67;;;;;;;27.10;34.41;100667.19;5026834;27;20409;-47
2022/05/14 11:55:37;;;;;;;9.73;2.17;;;;;;;26.82;34.59;100663.56;5034250;28;20398;-54
2022/05/14 11:58:13;;;;;;;9.95;2.05;;;;;;;26.61;35.57;100661.28;5017522;28;20119;-51
2022/05/14 12:00:42;;;;;;;13.05;2.60;;;;;;;26.68;36.14;100662.59;5020498;28;20552;-52
2022/05/14 12:05:52;;;;;;;7.30;3.53;;;;;;;26.97;35.33;100666.25;5065201;28;20379;-49
2022/05/14 12:16:29;;;;;;;13.73;5.07;;;;;;;26.50;34.58;100645.13;5037738;27;20403;-47
2022/05/14 12:18:56;;;;;;;13.85;3.67;;;;;;;26.55;34.46;100643.06;5018450;28;20061;-61
2022/05/14 12:21:23;;;;;;;9.32;3.83;;;;;;;26.38;34.58;100647.56;5019066;28;20053;-55
2022/05/14 12:23:50;;;;;;;9.65;3.13;;;;;;;25.98;34.79;100648.13;5018014;28;20096;-55
2022/05/14 12:29:12;;;;;;;7.13;1.77;;;;;;;25.98;35.32;100647.28;5031123;28;20393;-51
2022/05/14 12:34:36;;;;;;;7.57;1.90;;;;;;;26.05;35.68;100648.63;5024101;28;20498;-54
2022/05/14 12:37:12;;;;;;;8.98;2.50;;;;;;;25.99;35.12;100646.31;5038159;28;20572;-55
2022/05/14 12:39:42;;;;;;;8.88;2.35;;;;;;;26.11;36.05;100645.59;5014396;28;20054;-57
2022/05/14 12:42:09;;;;;;;;;;;;;;;26.11;35.76;100642.94;5034051;28;20123;-58
2022/05/14 12:44:41;;;;;;;10.05;2.35;;;;;;;26.27;35.85;100642.91;5023917;28;19921;-55
2022/05/14 12:47:09;;;;;;;8.95;2.20;;;;;;;26.28;36.01;100641.13;5024657;28;20041;-49
2022/05/14 12:49:43;;;;;;;10.77;2.13;;;;;;;26.40;35.91;100632.41;5041675;28;20037;-56
2022/05/14 12:52:15;;;;;;;8.13;2.00;;;;;;;26.53;36.24;100634.31;5015201;28;20053;-49
2022/05/14 12:57:37;;;;;;;8.02;2.53;;;;;;;27.22;32.92;100638.94;5072050;27;21043;-47
2022/05/14 13:00:07;;;;;;;5.75;1.70;;;;;;;26.73;32.30;100633.09;5045629;28;20463;-52
2022/05/14 13:08:14;;;;;;;8.65;2.50;;;;;;;26.29;33.71;100624.25;5064881;28;20399;-54
2022/05/14 13:10:49;;;;;;;7.18;1.85;;;;;;;26.25;33.55;100617.38;5028202;28;20046;-54
2022/05/14 13:13:17;;;;;;;5.00;1.60;;;;;;;26.30;33.58;100615.31;5021150;28;20081;-51
2022/05/14 13:15:55;;;;;;;9.05;2.15;;;;;;;26.39;33.66;100612.13;5021464;28;20038;-55